Time;durP1;ratioP1;P1;durP2;ratioP2;P2;SDS_P1;SDS_P2;PMS_P1;PMS_P2;Temp;Humidity;BMP_temperature;BMP_pressure;BME280_temperature;BME280_humidity;BME280_pressure;Samples;Min_cycle;Max_cycle;Signal;HPM_P1;HPM_P2
2024/01/10 00:00:03;;;;;;;12.63;4.33;;;1.40;98.80;;;2.55;42.27;102502.38;4918890;28;116853;-37
2024/01/10 00:02:28;;;;;;;13.63;5.40;;;1.50;99.20;;;2.55;45.35;102498.91;4912639;28;104689;-37
2024/01/10 00:04:54;;;;;;;12.30;5.13;;;1.50;99.50;;;2.26;42.07;102499.00;4902471;28;103622;-40
2024/01/10 00:07:20;;;;;;;12.80;5.17;;;1.40;98.80;;;2.23;42.97;102492.81;4880834;28;97747;-39
2024/01/10 00:09:46;;;;;;;14.00;5.37;;;1.30;98.20;;;2.03;42.39;102493.16;4885756;28;100023;-37
2024/01/10 00:12:12;;;;;;;12.20;5.93;;;1.20;99.50;;;2.36;43.20;102493.22;4889203;28;101112;-38
2024/01/10 00:14:38;;;;;;;12.10;5.73;;;1.50;99.90;;;2.64;43.74;102491.34;4907010;28;101711;-39
2024/01/10 00:17:04;;;;;;;9.53;4.77;;;1.60;99.90;;;2.91;53.64;102485.94;4923385;28;101717;-39
2024/01/10 00:19:30;;;;;;;11.07;5.23;;;1.60;99.90;;;2.50;41.11;102488.38;4906496;28;110527;-43
2024/01/10 00:21:56;;;;;;;9.80;4.50;;;1.60;99.10;;;3.15;49.57;102491.75;4893876;28;126378;-37
2024/01/10 00:24:21;;;;;;;11.37;5.67;;;1.90;99.90;;;2.73;46.96;102485.47;4906940;28;126550;-36
2024/01/10 00:26:47;;;;;;;9.87;5.23;;;1.70;99.00;;;2.32;40.56;102482.69;4925344;28;97669;-36
2024/01/10 00:29:13;;;;;;;15.57;5.60;;;1.50;98.80;;;2.46;42.24;102485.63;4928604;28;97976;-36
2024/01/10 00:31:40;;;;;;;12.67;5.63;;;1.60;99.30;;;2.32;43.13;102482.69;4914512;28;106806;-38
2024/01/10 00:34:06;;;;;;;13.47;5.27;;;1.50;98.30;;;2.65;50.54;102480.06;4927847;28;97802;-39
2024/01/10 00:36:32;;;;;;;11.07;5.70;;;1.40;99.90;;;2.53;50.87;102478.03;4918033;28;99298;-40
2024/01/10 00:38:57;;;;;;;8.53;4.20;;;1.30;99.90;;;2.54;41.71;102465.88;4867960;28;102125;-42
2024/01/10 00:41:23;;;;;;;8.20;5.03;;;1.50;99.90;;;2.90;54.56;102473.75;4910868;28;120574;-38
2024/01/10 00:43:49;;;;;;;8.13;4.43;;;1.50;99.90;;;2.66;45.83;102469.69;4904530;28;98726;-39
2024/01/10 00:46:15;;;;;;;7.63;4.17;;;1.50;99.90;;;3.16;51.42;102467.41;4914642;28;100625;-37
2024/01/10 00:48:41;;;;;;;8.87;4.30;;;1.70;99.90;;;2.43;41.33;102457.78;4915042;28;100838;-43
2024/01/10 00:51:08;;;;;;;10.13;4.50;;;1.50;99.80;;;2.87;53.06;102465.84;4926308;28;99545;-37
2024/01/10 00:53:38;;;;;;;6.27;3.60;;;1.60;99.90;;;2.74;47.80;102466.38;4911311;28;103762;-38
2024/01/10 00:56:05;;;;;;;7.53;4.40;;;1.60;99.90;;;2.92;47.76;102472.94;4875064;28;102594;-37
2024/01/10 00:58:34;;;;;;;9.80;4.37;;;1.60;99.90;;;3.00;52.11;102462.69;4879913;28;97613;-36
2024/01/10 01:01:00;;;;;;;7.53;5.10;;;1.60;99.90;;;2.29;41.76;102477.34;4921386;28;98454;-39
2024/01/10 01:03:25;;;;;;;10.27;4.50;;;1.50;99.90;;;2.69;42.47;102467.16;4923224;28;99169;-37
2024/01/10 01:05:51;;;;;;;6.20;3.97;;;1.60;99.90;;;2.98;54.82;102467.00;4912336;28;112818;-45
2024/01/10 01:08:17;;;;;;;8.60;4.60;;;1.70;99.90;;;2.89;51.86;102466.75;4907626;28;104339;-39
2024/01/10 01:10:43;;;;;;;8.57;4.00;;;1.60;99.90;;;2.80;54.42;102466.53;4912286;28;102122;-40
2024/01/10 01:13:09;;;;;;;7.50;3.90;;;1.60;99.90;;;3.06;51.52;102465.47;4876522;28;111712;-42
2024/01/10 01:15:34;;;;;;;7.80;4.57;;;1.80;99.90;;;2.49;43.75;102460.56;4899534;28;107792;-39
2024/01/10 01:18:00;;;;;;;9.20;4.17;;;1.60;99.90;;;2.51;42.83;102461.47;4914878;28;101917;-37
2024/01/10 01:20:28;;;;;;;9.27;3.77;;;1.60;99.90;;;2.77;43.98;102456.06;4911672;28;106502;-39
2024/01/10 01:22:54;;;;;;;10.93;4.20;;;1.60;99.90;;;2.71;43.49;102458.47;4881317;28;114958;-39
2024/01/10 01:25:20;;;;;;;10.60;4.40;;;1.60;99.90;;;2.69;45.21;102464.53;4906889;28;97579;-37
2024/01/10 01:27:49;;;;;;;10.80;3.73;;;1.50;99.90;;;2.67;44.39;102466.22;4911057;28;101043;-39
2024/01/10 01:30:15;;;;;;;8.53;4.40;;;1.60;99.90;;;2.97;48.17;102460.00;4911147;28;99515;-39
2024/01/10 01:32:41;;;;;;;6.97;3.53;;;1.70;99.90;;;2.94;53.87;102449.50;4917098;28;98879;-37
2024/01/10 01:35:07;;;;;;;5.70;3.43;;;1.60;99.90;;;2.62;42.63;102451.34;4913846;28;107269;-38
2024/01/10 01:37:32;;;;;;;5.77;3.23;;;1.60;99.90;;;2.37;41.42;102449.81;4893945;28;101722;-38
2024/01/10 01:39:58;;;;;;;6.43;3.37;;;1.50;99.90;;;2.61;49.75;102455.66;4885243;28;120379;-37
2024/01/10 01:42:25;;;;;;;6.70;3.53;;;1.40;99.90;;;2.50;54.15;102451.91;4866555;28;108139;-36
2024/01/10 01:44:50;;;;;;;7.27;3.83;;;1.30;99.90;;;2.13;44.87;102454.34;4898235;28;97806;-38
2024/01/10 01:47:16;;;;;;;5.07;3.17;;;1.20;99.90;;;2.25;48.22;102449.47;4882662;28;98441;-40
2024/01/10 01:49:42;;;;;;;7.30;3.40;;;1.20;99.90;;;1.99;41.99;102447.03;4916274;28;111953;-38
2024/01/10 01:52:13;;;;;;;6.83;3.03;;;1.20;99.90;;;1.91;42.62;102445.97;4903819;28;101144;-39
2024/01/10 01:54:40;;;;;;;5.67;3.20;;;1.10;99.90;;;1.87;42.63;102446.69;4917467;28;104585;-39
2024/01/10 01:57:08;;;;;;;5.90;2.93;;;1.10;99.90;;;1.80;44.44;102444.75;4916960;28;97656;-44
2024/01/10 01:59:34;;;;;;;7.13;3.00;;;1.00;99.70;;;1.74;42.72;102439.41;4902354;28;117438;-40
2024/01/10 02:02:03;;;;;;;7.27;3.27;;;1.00;99.90;;;1.73;45.10;102442.81;4893675;28;108690;-39
2024/01/10 02:04:30;;;;;;;7.73;3.47;;;1.00;99.90;;;2.00;47.41;102443.59;4899668;28;98496;-47
2024/01/10 02:06:57;;;;;;;6.20;2.93;;;0.90;99.90;;;1.86;44.34;102438.84;4907052;28;97387;-39
2024/01/10 02:09:23;;;;;;;5.60;3.43;;;0.90;99.90;;;1.85;45.94;102437.06;4924855;28;101238;-35
2024/01/10 02:11:49;;;;;;;5.40;2.80;;;0.80;99.90;;;1.88;47.27;102443.28;4886048;28;102155;-46
2024/01/10 02:14:16;;;;;;;6.43;3.40;;;0.80;99.90;;;1.85;44.04;102432.75;4879760;28;101079;-36
2024/01/10 02:16:42;;;;;;;6.83;3.37;;;0.80;99.90;;;1.83;44.45;102437.03;4922427;28;97393;-37
2024/01/10 02:19:19;;;;;;;7.23;3.53;;;0.90;99.80;;;1.65;43.24;102427.00;4914719;28;124837;-39
2024/01/10 02:21:45;;;;;;;5.70;3.00;;;0.90;99.90;;;1.60;44.06;102428.59;4944810;28;103780;-36
2024/01/10 02:24:11;;;;;;;5.90;3.03;;;0.80;99.90;;;2.11;48.73;102424.78;4932306;28;97382;-36
2024/01/10 02:26:36;;;;;;;7.23;4.10;;;0.90;99.90;;;1.96;43.81;102433.06;4941063;28;110612;-39
2024/01/10 02:29:02;;;;;;;7.23;3.43;;;0.90;99.90;;;1.84;43.70;102431.00;4956281;28;104469;-40
2024/01/10 02:31:28;;;;;;;5.57;3.17;;;0.90;99.90;;;2.14;50.78;102417.06;4959166;28;99455;-37
2024/01/10 02:33:54;;;;;;;6.50;3.10;;;0.90;99.90;;;2.08;45.40;102413.47;4957932;28;97857;-39
2024/01/10 02:36:20;;;;;;;7.77;3.53;;;1.00;99.90;;;2.19;47.27;102418.09;4956526;28;107727;-39
2024/01/10 02:38:47;;;;;;;6.90;4.03;;;1.00;99.90;;;2.09;46.98;102417.81;4930027;28;100074;-40
2024/01/10 02:41:13;;;;;;;6.00;3.07;;;0.90;99.90;;;2.16;45.37;102412.75;4939079;28;100474;-36
2024/01/10 02:43:39;;;;;;;7.63;2.97;;;1.00;99.90;;;2.38;49.98;102415.09;4955158;28;109233;-36
2024/01/10 02:46:05;;;;;;;8.47;3.83;;;1.00;99.90;;;2.34;49.51;102402.84;4958206;28;97573;-40
2024/01/10 02:48:30;;;;;;;6.50;3.53;;;1.00;99.90;;;2.05;43.58;102415.09;4956018;28;126823;-42
2024/01/10 02:50:56;;;;;;;8.07;3.47;;;1.00;99.90;;;1.83;43.15;102424.03;4948453;28;108414;-42
2024/01/10 02:53:22;;;;;;;6.90;3.53;;;0.90;99.90;;;1.82;45.22;102416.19;4955831;28;97385;-38
2024/01/10 02:55:49;;;;;;;9.23;3.77;;;0.80;99.60;;;1.97;45.53;102411.41;4942009;28;115287;-43
2024/01/10 02:58:15;;;;;;;11.20;3.73;;;0.80;99.90;;;1.92;45.03;102433.81;4959585;28;100299;-39
2024/01/10 03:00:40;;;;;;;6.87;3.33;;;0.90;99.90;;;2.15;50.50;102427.50;4953026;28;98624;-36
2024/01/10 03:03:06;;;;;;;6.70;3.93;;;0.90;99.90;;;2.51;48.86;102417.19;4962147;28;114841;-38
2024/01/10 03:05:32;;;;;;;7.87;3.90;;;1.10;99.90;;;2.57;49.12;102406.91;4955356;28;102962;-39
2024/01/10 03:07:57;;;;;;;9.63;4.03;;;1.20;99.90;;;2.10;43.07;102421.31;4940744;28;106459;-39
2024/01/10 03:10:23;;;;;;;4.83;3.20;;;1.10;99.40;;;2.32;47.24;102425.38;4955832;28;98392;-38
2024/01/10 03:12:49;;;;;;;6.47;3.27;;;1.00;99.90;;;2.46;47.07;102418.81;4958046;28;107687;-35
2024/01/10 03:15:15;;;;;;;8.83;3.27;;;1.00;99.90;;;2.64;52.44;102414.03;4961374;28;97143;-38
2024/01/10 03:17:40;;;;;;;4.77;3.13;;;1.10;99.90;;;2.23;42.70;102404.28;4956831;28;98006;-35
2024/01/10 03:20:10;;;;;;;7.10;3.10;;;1.10;99.90;;;2.33;42.24;102407.19;4960259;28;126087;-39
2024/01/10 03:22:39;;;;;;;6.57;3.37;;;1.20;99.90;;;2.58;53.34;102419.09;4944118;28;97264;-36
2024/01/10 03:25:05;;;;;;;6.43;3.47;;;1.20;99.90;;;2.48;43.54;102417.13;4941461;28;98978;-38
2024/01/10 03:27:30;;;;;;;8.27;3.60;;;1.20;99.90;;;1.98;44.58;102406.22;4959532;28;99394;-38
2024/01/10 03:29:56;;;;;;;6.67;2.83;;;1.00;99.20;;;1.94;43.40;102420.00;4960846;28;115385;-39
2024/01/10 03:32:22;;;;;;;9.73;4.47;;;0.90;99.60;;;1.99;45.74;102410.59;4937265;28;105764;-38
2024/01/10 03:34:51;;;;;;;6.13;3.27;;;0.90;99.90;;;2.68;50.82;102410.66;4957216;28;98478;-37
2024/01/10 03:37:16;;;;;;;6.30;3.33;;;1.20;99.90;;;2.58;45.25;102413.00;4955056;28;99725;-38
2024/01/10 03:39:42;;;;;;;7.67;3.50;;;1.20;99.90;;;2.22;42.07;102407.75;4960403;28;116950;-39
2024/01/10 03:42:08;;;;;;;8.57;3.50;;;1.20;98.70;;;2.49;48.56;102402.38;4961241;28;102742;-38
2024/01/10 03:44:34;;;;;;;7.80;3.80;;;1.10;99.90;;;2.57;44.88;102401.69;4956298;28;106163;-38
2024/01/10 03:47:00;;;;;;;6.00;3.23;;;1.20;99.90;;;2.33;44.03;102403.69;4953403;28;113038;-39
2024/01/10 03:49:25;;;;;;;6.60;3.83;;;1.10;99.60;;;1.98;42.02;102401.03;4948843;28;117235;-36
2024/01/10 03:51:51;;;;;;;9.20;4.23;;;1.00;98.90;;;1.82;42.94;102401.44;4953424;28;106866;-39
2024/01/10 03:54:17;;;;;;;10.27;4.57;;;1.00;99.20;;;1.79;42.70;102411.78;4907561;28;102579;-38
2024/01/10 03:56:43;;;;;;;5.63;3.30;;;0.90;99.20;;;2.03;44.43;102401.16;4953288;28;108130;-39
2024/01/10 03:59:09;;;;;;;8.33;3.37;;;0.90;99.90;;;2.17;47.58;102404.09;4936335;28;117994;-37
2024/01/10 04:01:34;;;;;;;7.87;3.43;;;0.90;99.90;;;1.93;45.04;102405.22;4958294;28;97908;-40
2024/01/10 04:04:00;;;;;;;7.73;3.40;;;0.80;99.90;;;1.90;45.00;102412.09;4957673;28;97537;-39
2024/01/10 04:06:27;;;;;;;7.03;3.73;;;0.80;99.90;;;1.59;42.00;102411.22;4958957;28;125405;-40
2024/01/10 04:08:53;;;;;;;6.17;3.70;;;0.80;99.30;;;1.32;41.49;102408.69;4959839;28;98086;-36
2024/01/10 04:11:19;;;;;;;8.87;3.43;;;0.60;98.70;;;1.15;41.95;102412.47;4938662;28;111110;-39
2024/01/10 04:13:44;;;;;;;4.53;3.33;;;0.40;99.50;;;1.32;43.98;102398.28;4953422;28;109377;-38
2024/01/10 04:16:10;;;;;;;9.13;4.03;;;0.40;99.60;;;1.48;46.57;102410.00;4959944;28;121622;-39
2024/01/10 04:18:36;;;;;;;5.80;3.90;;;0.40;99.70;;;1.49;47.29;102406.56;4957778;28;117446;-40
2024/01/10 04:21:02;;;;;;;7.33;3.23;;;0.30;99.90;;;1.40;43.29;102401.97;4951345;28;116832;-38
2024/01/10 04:23:27;;;;;;;6.60;3.17;;;0.40;99.90;;;1.34;46.28;102401.81;4954964;28;99992;-38
2024/01/10 04:25:53;;;;;;;6.77;3.13;;;0.40;99.90;;;1.34;43.71;102401.81;4956378;28;107408;-37
2024/01/10 04:28:19;;;;;;;10.60;4.13;;;0.50;99.90;;;1.70;49.06;102403.69;4946231;28;106875;-35
2024/01/10 04:30:45;;;;;;;7.43;3.37;;;0.50;99.90;;;1.62;44.89;102405.22;4961920;28;114289;-35
2024/01/10 04:33:11;;;;;;;11.07;3.70;;;0.60;99.90;;;1.63;46.29;102400.06;4953665;28;97370;-36
2024/01/10 04:35:36;;;;;;;8.47;3.13;;;0.60;99.90;;;1.64;46.03;102401.81;4963165;28;107503;-39
2024/01/10 04:38:02;;;;;;;10.13;4.20;;;0.60;99.90;;;1.73;45.91;102399.47;4934782;28;107838;-39
2024/01/10 04:40:28;;;;;;;7.00;3.83;;;0.70;99.90;;;1.40;44.24;102390.69;4950004;28;97247;-36
2024/01/10 04:42:54;;;;;;;8.30;4.40;;;0.60;99.90;;;1.39;45.12;102389.81;4944343;28;100015;-37
2024/01/10 04:45:19;;;;;;;10.20;4.63;;;0.60;99.90;;;1.19;42.15;102390.94;4958312;28;111099;-38
2024/01/10 04:47:45;;;;;;;10.03;3.27;;;0.50;99.90;;;1.15;43.23;102396.88;4942044;28;97527;-38
2024/01/10 04:50:11;;;;;;;10.83;3.60;;;0.50;99.90;;;1.11;45.44;102392.41;4958655;28;118788;-36
2024/01/10 04:52:37;;;;;;;7.30;3.43;;;0.40;99.90;;;1.43;46.89;102402.06;4958568;28;108853;-37
2024/01/10 04:55:05;;;;;;;9.67;4.30;;;0.40;99.90;;;1.62;49.40;102402.63;4960619;28;98558;-44
2024/01/10 04:57:31;;;;;;;6.30;3.57;;;0.50;99.90;;;1.69;48.84;102395.00;4943519;28;97651;-38
2024/01/10 04:59:57;;;;;;;7.67;3.37;;;0.50;99.90;;;2.02;46.19;102392.44;4945366;28;97724;-39
2024/01/10 05:02:23;;;;;;;8.20;4.00;;;0.80;99.90;;;2.02;47.12;102389.84;4955832;28;97131;-39
2024/01/10 05:04:49;;;;;;;7.83;3.70;;;0.90;99.90;;;2.00;47.06;102391.53;4959567;28;98362;-38
2024/01/10 05:07:15;;;;;;;8.60;3.73;;;0.80;99.90;;;2.02;47.32;102400.25;4940838;28;99653;-38
2024/01/10 05:09:41;;;;;;;8.13;3.90;;;0.80;99.90;;;1.73;43.67;102395.97;4947418;28;97292;-39
2024/01/10 05:12:07;;;;;;;6.20;2.90;;;0.80;99.90;;;2.41;53.18;102401.28;4948810;28;97883;-38
2024/01/10 05:14:33;;;;;;;13.63;4.70;;;0.90;99.90;;;2.92;50.07;102399.06;4952752;28;112671;-37
2024/01/10 05:16:58;;;;;;;10.77;3.20;;;1.40;99.90;;;3.17;50.49;102388.31;4927963;28;116510;-40
2024/01/10 05:19:24;;;;;;;7.50;3.97;;;1.60;99.90;;;3.25;49.61;102396.34;4948232;28;111294;-36
2024/01/10 05:21:50;;;;;;;9.00;3.37;;;1.60;99.90;;;2.80;44.25;102398.78;4956945;28;99409;-37
2024/01/10 05:24:16;;;;;;;8.50;3.47;;;1.50;99.90;;;3.07;48.21;102396.81;4953001;28;123036;-37
2024/01/10 05:26:41;;;;;;;6.30;2.33;;;1.50;99.90;;;3.39;52.22;102396.63;4957102;28;97906;-39
2024/01/10 05:29:07;;;;;;;7.97;3.23;;;1.70;99.90;;;3.40;49.66;102399.28;4952050;28;101111;-36
2024/01/10 05:31:33;;;;;;;7.10;3.40;;;1.80;99.90;;;2.96;45.28;102400.91;4940749;28;97425;-40
2024/01/10 05:33:59;;;;;;;8.77;3.03;;;1.70;99.90;;;2.48;41.97;102385.84;4951873;28;97333;-40
2024/01/10 05:36:25;;;;;;;8.63;3.67;;;1.40;99.90;;;2.26;43.63;102389.63;4950968;28;98641;-37
2024/01/10 05:38:51;;;;;;;10.07;3.70;;;1.30;99.90;;;2.60;49.97;102386.16;4956436;28;100032;-40
2024/01/10 05:41:17;;;;;;;4.63;2.90;;;1.30;99.90;;;3.05;49.46;102390.69;4960855;28;97274;-39
2024/01/10 05:43:43;;;;;;;4.17;2.60;;;1.60;99.90;;;2.27;41.88;102390.50;4945503;28;123559;-36
2024/01/10 05:46:10;;;;;;;7.23;3.13;;;1.30;99.90;;;2.21;44.56;102400.78;4957430;28;100702;-39
2024/01/10 05:48:35;;;;;;;6.60;3.13;;;1.10;99.90;;;2.99;53.24;102394.00;4944600;28;98959;-40
2024/01/10 05:51:01;;;;;;;4.93;2.97;;;1.40;99.90;;;2.92;42.27;102388.66;4934881;28;102332;-38
2024/01/10 05:53:27;;;;;;;4.67;3.33;;;1.70;99.90;;;2.60;42.18;102380.94;4953417;28;99846;-40
2024/01/10 05:55:53;;;;;;;13.00;4.17;;;1.50;99.70;;;2.14;41.97;102388.41;4955376;28;99114;-39
2024/01/10 05:58:19;;;;;;;9.93;3.50;;;1.30;99.50;;;1.75;41.87;102395.19;4956241;28;97349;-39
2024/01/10 06:00:45;;;;;;;11.63;3.33;;;1.00;99.90;;;1.68;44.19;102390.66;4959062;28;109272;-35
2024/01/10 06:03:11;;;;;;;5.87;3.33;;;1.00;99.90;;;1.90;43.42;102393.88;4958448;28;98019;-36
2024/01/10 06:05:36;;;;;;;7.80;3.43;;;1.00;99.90;;;1.92;45.42;102393.06;4963969;28;99907;-37
2024/01/10 06:08:04;;;;;;;7.83;4.00;;;0.90;99.90;;;1.76;41.54;102386.56;4959057;28;105173;-38
2024/01/10 06:10:32;;;;;;;6.47;3.23;;;0.90;99.40;;;1.48;41.33;102384.88;4855852;28;98147;-36
2024/01/10 06:12:58;;;;;;;11.20;3.20;;;0.80;99.90;;;1.26;41.36;102379.00;4927732;28;98035;-37
2024/01/10 06:15:24;;;;;;;6.53;3.77;;;0.70;99.90;;;1.06;41.83;102376.69;4958160;28;97668;-40
2024/01/10 06:17:50;;;;;;;7.07;3.30;;;0.50;99.90;;;0.93;42.72;102386.66;4956294;28;109315;-39
2024/01/10 06:20:16;;;;;;;6.57;3.70;;;0.40;99.90;;;0.92;43.32;102384.91;4956322;28;109435;-39
2024/01/10 06:22:41;;;;;;;8.50;4.00;;;0.40;99.90;;;0.75;42.45;102382.66;4925165;28;124552;-39
2024/01/10 06:25:07;;;;;;;7.67;3.90;;;0.40;99.90;;;0.65;42.50;102375.41;4954497;28;97515;-39
2024/01/10 06:27:33;;;;;;;6.93;4.00;;;0.30;99.90;;;0.55;44.53;102369.00;4957967;28;99074;-36
2024/01/10 06:29:59;;;;;;;8.90;3.97;;;0.20;99.90;;;0.65;45.50;102370.19;4939258;28;100969;-38
2024/01/10 06:32:26;;;;;;;6.57;3.40;;;0.20;99.90;;;0.63;44.40;102368.41;4955719;28;106795;-40
2024/01/10 06:34:52;;;;;;;7.40;2.87;;;0.10;99.90;;;0.59;43.87;102372.63;4944185;28;128486;-39
2024/01/10 06:37:18;;;;;;;8.47;3.13;;;0.20;99.90;;;0.54;43.51;102371.56;4947560;28;97576;-37
2024/01/10 06:39:44;;;;;;;8.17;2.83;;;0.10;99.90;;;0.47;43.35;102375.69;4957247;28;100513;-35
2024/01/10 06:42:11;;;;;;;5.33;2.87;;;0.10;99.90;;;0.42;44.36;102373.75;4931130;28;100786;-39
2024/01/10 06:44:37;;;;;;;7.67;3.77;;;0.10;99.90;;;0.48;45.64;102376.56;4930390;28;98837;-40
2024/01/10 06:47:03;;;;;;;7.83;3.20;;;0.10;99.90;;;0.48;44.12;102369.66;4961053;28;115427;-42
2024/01/10 06:49:29;;;;;;;5.30;2.73;;;0.20;99.90;;;0.51;43.90;102381.84;4950667;28;97553;-45
2024/01/10 06:51:55;;;;;;;9.03;3.87;;;0.10;99.90;;;0.48;44.07;102382.66;4934546;28;97841;-39
2024/01/10 06:54:21;;;;;;;8.33;3.40;;;0.10;99.90;;;0.45;46.99;102366.97;4943462;28;111678;-44
2024/01/10 06:56:47;;;;;;;11.43;3.50;;;0.00;99.90;;;0.49;44.10;102373.13;4959214;28;97863;-40
2024/01/10 06:59:12;;;;;;;6.90;3.80;;;0.10;99.90;;;0.40;44.46;102372.81;4960441;28;107983;-39
2024/01/10 07:01:39;;;;;;;4.53;2.77;;;0.00;99.90;;;0.41;44.45;102370.28;4960678;28;97901;-37
2024/01/10 07:04:05;;;;;;;7.87;2.93;;;0.10;99.90;;;0.35;44.88;102374.41;4957364;28;108658;-36
2024/01/10 07:06:31;;;;;;;6.73;2.93;;;0.10;99.90;;;0.41;44.97;102369.41;4954332;28;107980;-40
2024/01/10 07:08:58;;;;;;;6.03;3.37;;;0.10;99.90;;;0.55;44.55;102373.31;4945454;28;97528;-37
2024/01/10 07:11:24;;;;;;;7.17;2.83;;;0.20;99.90;;;0.45;43.79;102369.56;4959749;28;98963;-39
2024/01/10 07:13:50;;;;;;;6.53;3.13;;;0.10;99.90;;;0.37;45.19;102372.72;4954630;28;114735;-36
2024/01/10 07:16:15;;;;;;;11.30;3.43;;;0.10;99.90;;;0.34;44.57;102367.44;4947563;28;97372;-43
2024/01/10 07:18:42;;;;;;;9.53;3.97;;;0.00;99.90;;;0.34;44.12;102377.81;4937226;28;97322;-37
2024/01/10 07:21:09;;;;;;;21.03;10.23;;;0.00;99.90;;;0.24;44.39;102361.94;4962295;28;99613;-38
2024/01/10 07:23:38;;;;;;;24.67;8.63;;;-0.10;99.90;;;0.18;45.39;102369.53;4956429;28;99018;-36
2024/01/10 07:26:04;;;;;;;8.30;5.13;;;-0.10;99.90;;;0.18;44.21;102369.53;4951702;28;98870;-38
2024/01/10 07:28:30;;;;;;;9.90;4.67;;;-0.20;99.90;;;0.29;47.56;102368.19;4946118;28;98510;-35
2024/01/10 07:30:56;;;;;;;9.63;4.57;;;-0.20;99.90;;;0.53;48.55;102375.00;4951680;28;99276;-35
2024/01/10 07:33:21;;;;;;;8.87;3.50;;;-0.20;99.90;;;0.46;46.59;102380.84;4943641;28;114366;-37
2024/01/10 07:35:47;;;;;;;13.97;3.50;;;-0.10;99.90;;;0.45;45.62;102381.66;4931393;28;108668;-38
2024/01/10 07:38:13;;;;;;;10.00;4.60;;;0.00;99.90;;;0.40;46.31;102393.59;4958767;28;114899;-36
2024/01/10 07:40:38;;;;;;;9.80;3.97;;;-0.10;99.90;;;0.38;44.69;102396.13;4956619;28;121050;-39
2024/01/10 07:43:04;;;;;;;10.30;5.70;;;-0.10;99.90;;;0.47;44.64;102392.97;4956909;28;126818;-38
2024/01/10 07:45:30;;;;;;;14.23;5.03;;;0.00;99.90;;;0.44;47.01;102385.09;4951335;28;111363;-39
2024/01/10 07:47:56;;;;;;;11.87;5.33;;;0.00;99.90;;;0.50;47.16;102390.47;4941666;28;106569;-38
2024/01/10 07:50:26;;;;;;;10.37;4.57;;;0.00;99.90;;;0.66;47.31;102397.94;4959667;28;100795;-41
2024/01/10 07:52:52;;;;;;;8.57;4.27;;;0.10;99.90;;;0.69;45.18;102397.16;4957218;28;98714;-36
2024/01/10 07:55:18;;;;;;;10.00;4.60;;;0.20;99.90;;;0.83;45.58;102395.88;4943571;28;109927;-40
2024/01/10 07:57:44;;;;;;;14.90;5.07;;;0.40;99.90;;;0.88;46.53;102389.13;4941484;28;97589;-43
2024/01/10 08:00:10;;;;;;;8.33;4.20;;;0.30;99.90;;;0.87;45.37;102398.63;4959277;28;99068;-37
2024/01/10 08:02:39;;;;;;;10.23;4.40;;;0.40;99.90;;;0.93;45.42;102402.25;4955098;28;102877;-40
2024/01/10 08:05:09;;;;;;;7.90;3.53;;;0.40;99.90;;;1.01;44.88;102400.75;4951854;28;100329;-44
2024/01/10 08:07:37;;;;;;;12.13;4.07;;;0.40;99.90;;;1.06;44.66;102396.59;4936717;28;104656;-38
2024/01/10 08:10:09;;;;;;;9.93;4.23;;;0.50;99.90;;;1.02;45.82;102392.16;4951924;28;97725;-39
2024/01/10 08:12:38;;;;;;;8.47;4.40;;;0.50;99.90;;;0.93;46.01;102407.44;4924166;28;98622;-37
2024/01/10 08:15:06;;;;;;;10.60;4.07;;;0.40;99.90;;;0.92;45.67;102400.50;4918992;28;99647;-38
2024/01/10 08:17:33;;;;;;;7.93;3.60;;;0.40;99.90;;;1.03;45.79;102410.41;4927348;28;98299;-39
2024/01/10 08:20:00;;;;;;;8.23;4.03;;;0.50;99.90;;;1.41;49.34;102419.34;4928275;28;100251;-37
2024/01/10 08:22:26;;;;;;;11.60;4.87;;;0.60;99.90;;;1.38;46.65;102411.44;4897785;28;98344;-37
2024/01/10 08:24:52;;;;;;;8.33;4.13;;;0.60;99.90;;;1.22;45.27;102418.75;4906429;28;100131;-37
2024/01/10 08:27:27;;;;;;;8.40;4.50;;;0.50;99.90;;;1.07;44.38;102416.56;4896280;28;106239;-42
2024/01/10 08:35:30;;;;;;;;;;;;;;;;;;;;;
2024/01/10 08:38:08;;;;;;;12.23;5.50;;;0.40;99.90;;;1.11;48.76;102418.41;4649689;28;124487;-39
2024/01/10 08:40:38;;;;;;;10.63;5.10;;;0.50;99.90;;;1.00;45.87;102420.66;4735744;28;102965;-35
2024/01/10 08:43:10;;;;;;;11.20;5.00;;;0.60;99.90;;;1.03;45.52;102415.59;4649449;28;101792;-36
2024/01/10 08:45:57;;;;;;;8.27;3.87;;;0.60;99.90;;;1.03;45.58;102419.91;4609575;28;104204;-39
2024/01/10 08:48:48;;;;;;;;;;;;;;;;;;;;;
2024/01/10 08:51:18;;;;;;;11.37;4.93;;;0.70;99.90;;;1.21;45.08;102415.28;4521479;28;127687;-38
2024/01/10 08:54:16;;;;;;;10.13;5.13;;;0.80;99.90;;;1.14;45.20;102421.09;4625902;28;107255;-37
2024/01/10 08:57:04;;;;;;;;;;;;;;;;;;;;;
2024/01/10 09:00:06;;;;;;;11.47;5.30;;;0.60;99.90;;;0.95;45.60;102421.38;4517448;29;116975;-47
2024/01/10 09:03:02;;;;;;;7.97;4.73;;;0.60;99.90;;;1.00;45.61;102419.78;4543963;28;102086;-38
2024/01/10 09:05:34;;;;;;;9.60;5.60;;;0.60;99.90;;;1.00;45.12;102424.97;4629821;28;101337;-38
2024/01/10 09:08:10;;;;;;;8.67;4.57;;;0.70;99.90;;;1.04;46.12;102419.06;4627761;28;99794;-38
2024/01/10 09:10:46;;;;;;;10.87;6.07;;;0.70;99.90;;;1.11;46.88;102414.09;4591070;29;97819;-38
2024/01/10 09:13:14;;;;;;;11.37;5.10;;;0.70;99.90;;;1.14;45.29;102423.69;4636755;28;111308;-35
2024/01/10 09:15:46;;;;;;;9.27;4.37;;;0.80;99.90;;;1.20;45.52;102423.91;4665884;28;100994;-38
2024/01/10 09:18:43;;;;;;;11.87;5.37;;;0.90;99.90;;;1.65;50.73;102434.78;4564247;28;98565;-38
2024/01/10 09:21:35;;;;;;;9.43;4.50;;;1.00;99.90;;;1.78;46.91;102436.03;4681660;28;99640;-38
2024/01/10 09:24:35;;;;;;;9.23;4.23;;;1.30;99.90;;;1.78;44.99;102425.63;4621686;28;102815;-37
2024/01/10 09:27:17;;;;;;;11.00;4.30;;;1.30;99.90;;;1.85;44.37;102434.47;4662029;28;104905;-36
2024/01/10 09:30:11;;;;;;;;;;;;;;;;;;;;;
2024/01/10 09:32:52;;;;;;;8.10;3.63;;;1.50;99.90;;;1.99;43.78;102431.41;4644156;28;115794;-38
2024/01/10 09:35:43;;;;;;;10.30;4.40;;;1.60;99.90;;;2.01;44.14;102440.16;4538058;28;101920;-39
2024/01/10 09:41:54;;;;;;;4.20;2.60;;;1.70;99.90;;;2.63;55.81;102443.56;4485961;28;99843;-38
2024/01/10 09:44:36;;;;;;;6.43;3.37;;;1.90;99.90;;;3.24;44.04;102451.97;4611020;29;102450;-39
2024/01/10 09:47:31;;;;;;;;;;;;;;;;;;;;;
2024/01/10 09:50:07;;;;;;;8.33;4.00;;;2.50;99.90;;;3.03;40.31;102459.25;4582253;28;130366;-38
2024/01/10 09:53:43;;;;;;;8.47;3.63;;;2.50;99.90;;;2.94;42.03;102459.94;4608896;28;98589;-40
2024/01/10 09:56:21;;;;;;;9.13;4.17;;;2.50;99.90;;;2.75;43.05;102449.88;4599976;28;101724;-38
2024/01/10 09:59:16;;;;;;;17.40;4.77;;;2.50;99.90;;;2.66;43.51;102460.97;4596510;28;102383;-39
2024/01/10 10:02:06;;;;;;;14.87;5.53;;;2.50;99.90;;;2.64;43.38;102450.53;4773468;28;101534;-43
2024/01/10 10:04:35;;;;;;;11.40;5.20;;;2.50;99.90;;;2.78;43.42;102447.38;4643101;28;97783;-38
2024/01/10 10:07:17;;;;;;;16.00;5.30;;;2.60;99.90;;;3.09;48.27;102455.09;4578193;28;99546;-38
2024/01/10 10:10:02;;;;;;;10.07;5.90;;;2.60;99.90;;;3.41;46.73;102457.56;4663191;28;101559;-42
2024/01/10 10:13:23;;;;;;;;;;;;;;;;;;;;;
2024/01/10 10:16:22;;;;;;;20.90;5.40;;;2.90;99.90;;;3.41;45.91;102463.66;4755218;28;97939;-40
2024/01/10 10:18:57;;;;;;;11.57;5.10;;;2.90;99.90;;;3.49;43.61;102456.00;4712615;28;99894;-44
2024/01/10 10:21:39;;;;;;;9.43;5.30;;;3.00;99.90;;;3.45;43.12;102455.03;4652137;28;104449;-37
2024/01/10 10:24:36;;;;;;;11.03;4.43;;;3.00;99.90;;;3.44;43.03;102463.72;4644050;28;101810;-39
2024/01/10 10:27:16;;;;;;;7.70;4.93;;;3.10;99.90;;;3.53;45.24;102457.81;4624299;28;98370;-38
2024/01/10 10:30:01;;;;;;;9.20;4.87;;;3.10;99.90;;;3.54;43.02;102446.53;4752424;28;98094;-37
2024/01/10 10:32:37;;;;;;;9.17;4.40;;;3.20;99.90;;;3.48;43.97;102449.03;4614780;28;108259;-40
2024/01/10 10:35:13;;;;;;;15.40;5.17;;;3.10;99.90;;;3.49;44.80;102446.44;4774840;28;102893;-38
2024/01/10 10:38:03;;;;;;;14.20;5.40;;;3.10;99.90;;;3.57;44.02;102454.44;4735586;28;99226;-38
2024/01/10 10:40:40;;;;;;;9.10;5.53;;;3.20;99.90;;;3.77;43.81;102453.13;4689640;28;98549;-37
2024/01/10 10:43:14;;;;;;;12.20;5.00;;;3.40;99.90;;;3.85;43.26;102451.53;4727939;28;104618;-37
2024/01/10 10:46:01;;;;;;;12.73;5.50;;;3.50;99.90;;;3.81;43.18;102443.63;4690374;28;100486;-39
2024/01/10 10:48:53;;;;;;;;;;;;;;;;;;;;;